createdAt,value
2018-04-22T00:01:06.461Z,5.83
2018-04-22T00:03:34.004Z,5.60
2018-04-22T00:06:01.521Z,4.77
2018-04-22T00:08:29.066Z,5.10
2018-04-22T00:10:56.600Z,5.43
2018-04-22T00:13:24.905Z,5.00
2018-04-22T00:15:52.412Z,5.43
2018-04-22T00:18:19.951Z,5.60
2018-04-22T00:20:47.466Z,5.73
2018-04-22T00:23:15.780Z,5.90
2018-04-22T00:25:43.310Z,5.60
2018-04-22T00:28:10.859Z,5.90
2018-04-22T00:30:38.392Z,6.20
2018-04-22T00:33:05.899Z,6.27
2018-04-22T00:35:33.431Z,6.13
2018-04-22T00:38:01.699Z,6.37
2018-04-22T00:40:29.244Z,6.47
2018-04-22T00:42:57.540Z,6.63
2018-04-22T00:45:25.093Z,6.60
2018-04-22T00:47:53.385Z,6.60
2018-04-22T00:50:20.927Z,6.27
2018-04-22T00:52:49.212Z,6.20
2018-04-22T00:55:16.747Z,5.83
2018-04-22T00:57:45.023Z,6.30
2018-04-22T01:00:12.552Z,6.60
2018-04-22T01:02:40.078Z,6.50
2018-04-22T01:05:07.614Z,6.80
2018-04-22T01:07:35.119Z,6.93
2018-04-22T01:10:02.663Z,6.60
2018-04-22T01:12:30.171Z,7.07
2018-04-22T01:14:58.475Z,6.60
2018-04-22T01:17:26.029Z,7.10
2018-04-22T01:19:53.707Z,6.03
2018-04-22T01:22:21.252Z,5.63
2018-04-22T01:24:48.771Z,6.53
2018-04-22T01:27:16.313Z,6.87
2018-04-22T01:29:43.835Z,7.10
2018-04-22T01:32:11.363Z,6.53
2018-04-22T01:34:39.639Z,6.50
2018-04-22T01:37:07.932Z,6.00
2018-04-22T01:39:35.457Z,6.93
2018-04-22T01:42:02.983Z,7.00
2018-04-22T01:44:30.488Z,6.70
2018-04-22T01:46:58.839Z,7.53
2018-04-22T01:49:26.357Z,7.53
2018-04-22T01:51:53.899Z,8.07
2018-04-22T01:54:21.415Z,7.70
2018-04-22T01:56:48.946Z,7.03
2018-04-22T01:59:16.460Z,7.77
2018-04-22T02:01:43.988Z,7.67
2018-04-22T02:04:11.506Z,7.70
2018-04-22T02:06:39.035Z,7.90
2018-04-22T02:09:06.542Z,7.50
2018-04-22T02:11:34.070Z,7.33
2018-04-22T02:14:01.598Z,8.07
2018-04-22T02:16:29.149Z,8.50
2018-04-22T02:18:56.659Z,8.30
2018-04-22T02:21:24.179Z,8.47
2018-04-22T02:23:51.720Z,7.77
2018-04-22T02:26:19.251Z,7.50
2018-04-22T02:28:46.780Z,8.23
2018-04-22T02:31:14.299Z,8.53
2018-04-22T02:33:41.823Z,8.40
2018-04-22T02:36:09.333Z,8.33
2018-04-22T02:38:36.873Z,7.90
2018-04-22T02:41:04.388Z,7.60
2018-04-22T02:43:31.956Z,7.73
2018-04-22T02:45:59.455Z,7.43
2018-04-22T02:48:26.985Z,8.37
2018-04-22T02:50:55.296Z,8.33
2018-04-22T02:53:22.834Z,8.13
2018-04-22T02:55:50.375Z,8.20
2018-04-22T02:58:18.770Z,7.83
2018-04-22T03:00:46.467Z,8.10
2018-04-22T03:03:13.983Z,8.03
2018-04-22T03:05:41.515Z,7.33
2018-04-22T03:08:09.025Z,8.10
2018-04-22T03:10:36.559Z,8.00
2018-04-22T03:13:04.088Z,8.67
2018-04-22T03:15:32.397Z,8.30
2018-04-22T03:17:59.911Z,9.63
2018-04-22T03:20:27.451Z,8.07
2018-04-22T03:22:54.960Z,7.90
2018-04-22T03:25:22.495Z,7.80
2018-04-22T03:27:50.015Z,7.87
2018-04-22T03:30:17.535Z,8.07
2018-04-22T03:32:45.082Z,7.80
2018-04-22T03:35:12.631Z,8.10
2018-04-22T03:37:40.931Z,7.90
2018-04-22T03:40:08.443Z,7.57
2018-04-22T03:42:36.035Z,7.97
2018-04-22T03:45:03.531Z,7.43
2018-04-22T03:47:31.058Z,7.60
2018-04-22T03:49:58.576Z,7.77
2018-04-22T03:52:26.127Z,7.23
2018-04-22T03:54:53.645Z,7.67
2018-04-22T03:57:21.174Z,8.40
2018-04-22T03:59:48.717Z,9.00
2018-04-22T04:02:16.249Z,7.90
2018-04-22T04:04:43.815Z,8.20
2018-04-22T04:07:11.451Z,7.60
2018-04-22T04:09:39.731Z,8.50
2018-04-22T04:12:07.243Z,8.80
2018-04-22T04:14:34.772Z,8.03
2018-04-22T04:17:02.292Z,8.50
2018-04-22T04:19:41.550Z,7.60
2018-04-22T04:22:20.875Z,8.70
2018-04-22T04:25:00.185Z,8.43
2018-04-22T04:30:24.499Z,10.07
2018-04-22T04:32:52.019Z,9.70
2018-04-22T04:35:19.559Z,9.97
2018-04-22T04:37:47.841Z,9.60
2018-04-22T04:40:15.380Z,9.40
2018-04-22T04:42:42.901Z,9.90
2018-04-22T04:45:10.431Z,9.97
2018-04-22T04:47:37.944Z,8.90
2018-04-22T04:50:05.479Z,8.97
2018-04-22T04:52:33.001Z,10.00
2018-04-22T04:55:00.540Z,8.80
2018-04-22T04:57:28.061Z,9.53
2018-04-22T04:59:55.604Z,8.90
2018-04-22T05:02:23.118Z,8.53
2018-04-22T05:04:51.425Z,8.30
2018-04-22T05:07:18.943Z,8.90
2018-04-22T05:09:47.235Z,7.63
2018-04-22T05:12:14.747Z,7.77
2018-04-22T05:14:42.279Z,7.67
2018-04-22T05:17:09.819Z,7.87
2018-04-22T05:19:37.347Z,8.53
2018-04-22T05:22:04.881Z,7.60
2018-04-22T05:24:32.423Z,7.97
2018-04-22T05:26:59.959Z,9.00
2018-04-22T05:29:27.468Z,8.23
2018-04-22T05:31:55.012Z,8.33
2018-04-22T05:34:22.538Z,8.63
2018-04-22T05:36:50.067Z,8.13
2018-04-22T05:39:17.587Z,8.40
2018-04-22T05:41:45.131Z,7.97
2018-04-22T05:44:12.654Z,8.73
2018-04-22T05:46:40.203Z,7.50
2018-04-22T05:49:07.722Z,8.03
2018-04-22T05:51:35.237Z,8.23
2018-04-22T05:54:02.767Z,7.77
2018-04-22T05:56:30.295Z,6.97
2018-04-22T05:58:57.822Z,8.10
2018-04-22T06:01:25.346Z,7.43
2018-04-22T06:03:52.897Z,7.03
2018-04-22T06:06:20.424Z,7.20
2018-04-22T06:08:47.997Z,7.43
2018-04-22T06:11:15.514Z,7.50
2018-04-22T06:13:43.057Z,6.77
2018-04-22T06:16:10.599Z,7.20
2018-04-22T06:18:38.145Z,7.70
2018-04-22T06:21:05.671Z,7.67
2018-04-22T06:23:33.211Z,7.37
2018-04-22T06:26:00.733Z,7.50
2018-04-22T06:28:28.270Z,6.73
2018-04-22T06:30:55.797Z,6.77
2018-04-22T06:33:23.344Z,6.83
2018-04-22T06:35:50.860Z,6.80
2018-04-22T06:38:18.379Z,7.27
2018-04-22T06:40:45.911Z,7.07
2018-04-22T06:43:13.425Z,6.63
2018-04-22T06:45:40.967Z,6.30
2018-04-22T06:48:08.487Z,6.93
2018-04-22T06:50:36.035Z,6.40
2018-04-22T06:53:03.556Z,5.80
2018-04-22T06:55:31.090Z,5.70
2018-04-22T06:57:58.599Z,5.67
2018-04-22T07:00:26.162Z,5.67
2018-04-22T07:02:53.688Z,5.20
2018-04-22T07:05:21.247Z,5.10
2018-04-22T07:07:48.766Z,5.03
2018-04-22T07:10:17.075Z,5.37
2018-04-22T07:12:44.592Z,4.60
2018-04-22T07:15:12.131Z,4.40
2018-04-22T07:17:39.639Z,4.53
2018-04-22T07:20:07.160Z,3.83
2018-04-22T07:22:34.692Z,3.40
2018-04-22T07:25:02.571Z,3.60
2018-04-22T07:27:30.235Z,3.07
2018-04-22T07:29:57.763Z,4.40
2018-04-22T07:32:25.299Z,3.87
2018-04-22T07:34:52.823Z,4.00
2018-04-22T07:37:20.363Z,3.87
2018-04-22T07:39:47.887Z,3.92
2018-04-22T07:42:15.431Z,3.67
2018-04-22T07:44:42.951Z,3.85
2018-04-22T07:47:10.487Z,3.95
2018-04-22T07:49:38.003Z,4.20
2018-04-22T07:52:05.531Z,4.37
2018-04-22T07:54:33.816Z,4.35
2018-04-22T07:57:01.386Z,3.95
2018-04-22T07:59:28.911Z,4.20
2018-04-22T08:01:56.427Z,3.92
2018-04-22T08:04:23.977Z,3.90
2018-04-22T08:06:51.510Z,3.72
2018-04-22T08:09:19.063Z,4.35
2018-04-22T08:11:46.619Z,4.45
2018-04-22T08:14:14.157Z,4.43
2018-04-22T08:16:41.805Z,4.35
2018-04-22T08:19:09.345Z,4.35
2018-04-22T08:21:36.860Z,4.50
2018-04-22T08:24:04.417Z,4.45
2018-04-22T08:26:31.934Z,4.37
2018-04-22T08:28:59.475Z,4.20
2018-04-22T08:31:27.010Z,4.55
2018-04-22T08:33:54.693Z,4.82
2018-04-22T08:36:22.195Z,5.05
2018-04-22T08:38:50.539Z,5.00
2018-04-22T08:41:18.169Z,4.80
2018-04-22T08:43:45.731Z,5.50
2018-04-22T08:46:14.008Z,5.10
2018-04-22T08:48:41.532Z,4.37
2018-04-22T08:51:09.852Z,5.75
2018-04-22T08:53:37.376Z,5.55
2018-04-22T08:56:04.917Z,4.68
2018-04-22T08:58:33.233Z,5.00
2018-04-22T09:01:01.367Z,5.05
2018-04-22T09:03:29.662Z,5.60
2018-04-22T09:05:57.209Z,5.40
2018-04-22T09:08:25.508Z,5.28
2018-04-22T09:10:53.085Z,5.15
2018-04-22T09:13:20.575Z,4.90
2018-04-22T09:15:48.102Z,4.82
2018-04-22T09:18:15.631Z,4.72
2018-04-22T09:20:43.186Z,4.70
2018-04-22T09:23:10.712Z,5.05
2018-04-22T09:25:38.265Z,3.95
2018-04-22T09:28:05.939Z,4.40
2018-04-22T09:30:33.484Z,4.30
2018-04-22T09:33:01.036Z,4.65
2018-04-22T09:35:28.567Z,4.72
2018-04-22T09:37:56.183Z,4.60
2018-04-22T09:40:24.488Z,4.22
2018-04-22T09:42:52.032Z,4.95
2018-04-22T09:45:19.547Z,5.43
2018-04-22T09:47:47.082Z,4.82
2018-04-22T09:50:14.603Z,5.10
2018-04-22T09:52:42.277Z,4.50
2018-04-22T09:55:09.795Z,4.65
2018-04-22T09:57:37.331Z,5.25
2018-04-22T10:00:04.851Z,4.83
2018-04-22T10:02:33.175Z,5.47
2018-04-22T10:05:06.417Z,4.97
2018-04-22T10:07:33.979Z,5.03
2018-04-22T10:10:01.487Z,4.60
2018-04-22T10:12:29.823Z,4.90
2018-04-22T10:14:57.341Z,4.60
2018-04-22T10:17:25.625Z,4.40
2018-04-22T10:19:53.156Z,4.40
2018-04-22T10:22:21.445Z,4.23
2018-04-22T10:24:49.062Z,4.13
2018-04-22T10:27:16.592Z,4.70
2018-04-22T10:29:44.148Z,4.97
2018-04-22T10:32:11.667Z,4.70
2018-04-22T10:34:40.003Z,4.40
2018-04-22T10:37:07.510Z,4.80
2018-04-22T10:39:35.822Z,4.70
2018-04-22T10:42:04.125Z,4.40
2018-04-22T10:44:31.660Z,3.77
2018-04-22T10:46:59.347Z,4.07
2018-04-22T10:49:26.881Z,3.63
2018-04-22T10:51:54.582Z,4.53
2018-04-22T10:54:22.143Z,3.57
2018-04-22T10:56:50.445Z,3.60
2018-04-22T10:59:17.968Z,4.43
2018-04-22T11:01:46.281Z,4.07
2018-04-22T11:04:13.836Z,3.90
2018-04-22T11:06:41.399Z,3.80
2018-04-22T11:09:08.927Z,3.93
2018-04-22T11:11:36.471Z,3.80
2018-04-22T11:14:04.502Z,3.47
2018-04-22T11:16:32.071Z,4.07
2018-04-22T11:18:59.619Z,3.73
2018-04-22T11:21:27.173Z,3.90
2018-04-22T11:23:54.770Z,4.03
2018-04-22T11:26:22.319Z,4.27
2018-04-22T11:28:49.848Z,3.37
2018-04-22T11:31:17.381Z,3.57
2018-04-22T11:33:45.671Z,3.63
2018-04-22T11:36:13.224Z,3.60
2018-04-22T11:38:40.746Z,3.70
2018-04-22T11:41:08.328Z,3.30
2018-04-22T11:43:35.863Z,3.53
2018-04-22T11:46:03.382Z,3.40
2018-04-22T11:48:30.933Z,3.43
2018-04-22T11:50:58.461Z,3.43
2018-04-22T11:53:25.995Z,3.37
2018-04-22T11:55:53.513Z,3.17
2018-04-22T11:58:21.062Z,3.23
2018-04-22T12:00:48.595Z,3.70
2018-04-22T12:03:16.126Z,3.70
2018-04-22T12:05:43.637Z,3.27
2018-04-22T12:08:11.172Z,3.30
2018-04-22T12:10:38.697Z,3.40
2018-04-22T12:13:06.236Z,3.50
2018-04-22T12:15:33.755Z,2.90
2018-04-22T12:18:01.291Z,3.20
2018-04-22T12:20:28.856Z,3.40
2018-04-22T12:22:56.391Z,3.07
2018-04-22T12:25:24.684Z,2.90
2018-04-22T12:27:52.240Z,3.30
2018-04-22T12:30:19.751Z,2.80
2018-04-22T12:32:47.265Z,3.37
2018-04-22T12:35:14.861Z,2.90
2018-04-22T12:37:43.195Z,3.43
2018-04-22T12:40:10.740Z,2.80
2018-04-22T12:42:39.023Z,3.50
2018-04-22T12:45:06.594Z,2.90
2018-04-22T12:47:34.117Z,2.90
2018-04-22T12:50:01.648Z,3.13
2018-04-22T12:52:29.167Z,3.33
2018-04-22T12:54:56.688Z,3.17
2018-04-22T12:57:24.975Z,3.20
2018-04-22T12:59:52.515Z,2.80
2018-04-22T13:02:20.036Z,3.20
2018-04-22T13:04:47.559Z,3.57
2018-04-22T13:07:15.855Z,3.00
2018-04-22T13:09:43.404Z,3.10
2018-04-22T13:12:10.911Z,2.87
2018-04-22T13:14:38.427Z,3.30
2018-04-22T13:17:05.968Z,3.10
2018-04-22T13:19:33.488Z,3.00
2018-04-22T13:22:01.016Z,2.87
2018-04-22T13:24:28.531Z,3.03
2018-04-22T13:26:56.910Z,3.00
2018-04-22T13:29:24.438Z,3.37
2018-04-22T13:31:51.976Z,3.20
2018-04-22T13:34:19.538Z,3.40
2018-04-22T13:36:47.075Z,2.77
2018-04-22T13:39:14.596Z,3.20
2018-04-22T13:41:42.891Z,3.67
2018-04-22T13:44:10.419Z,3.27
2018-04-22T13:46:38.764Z,3.40
2018-04-22T13:49:06.284Z,3.20
2018-04-22T13:51:33.811Z,4.00
2018-04-22T13:54:02.106Z,3.23
2018-04-22T13:56:30.410Z,3.50
2018-04-22T13:58:57.943Z,3.40
2018-04-22T14:01:25.704Z,3.00
2018-04-22T14:03:53.234Z,3.30
2018-04-22T14:06:20.751Z,2.73
2018-04-22T14:08:48.285Z,3.23
2018-04-22T14:11:15.804Z,3.43
2018-04-22T14:13:43.356Z,3.67
2018-04-22T14:16:10.892Z,3.30
2018-04-22T14:18:38.423Z,3.60
2018-04-22T14:21:05.939Z,2.90
2018-04-22T14:23:33.473Z,3.60
2018-04-22T14:26:00.999Z,3.70
2018-04-22T14:28:28.534Z,4.00
2018-04-22T14:30:56.972Z,3.97
2018-04-22T14:33:24.498Z,3.87
2018-04-22T14:35:52.011Z,3.77
2018-04-22T14:38:19.575Z,3.53
2018-04-22T14:40:47.083Z,3.70
2018-04-22T14:43:14.673Z,3.90
2018-04-22T14:45:53.920Z,3.10
2018-04-22T14:48:21.487Z,4.37
2018-04-22T14:50:49.797Z,3.40
2018-04-22T14:53:17.319Z,3.10
2018-04-22T14:55:45.625Z,3.40
2018-04-22T14:58:13.345Z,3.30
2018-04-22T15:00:40.878Z,3.43
2018-04-22T15:03:08.393Z,4.00
2018-04-22T15:05:35.935Z,4.00
2018-04-22T15:08:03.457Z,3.50
2018-04-22T15:10:30.987Z,3.47
2018-04-22T15:12:58.503Z,3.60
2018-04-22T15:15:26.815Z,3.40
2018-04-22T15:17:54.340Z,3.80
2018-04-22T15:20:22.651Z,3.80
2018-04-22T15:22:50.180Z,4.03
2018-04-22T15:25:18.507Z,3.60
2018-04-22T15:27:46.027Z,3.20
2018-04-22T15:30:13.559Z,3.30
2018-04-22T15:32:42.023Z,3.30
2018-04-22T15:35:09.545Z,3.53
2018-04-22T15:37:37.082Z,3.67
2018-04-22T15:40:04.595Z,3.67
2018-04-22T15:42:32.131Z,3.93
2018-04-22T15:44:59.654Z,4.27
2018-04-22T15:47:27.967Z,3.90
2018-04-22T15:49:55.478Z,3.57
2018-04-22T15:52:23.007Z,3.87
2018-04-22T15:54:50.519Z,3.60
2018-04-22T15:57:18.055Z,3.63
2018-04-22T15:59:45.575Z,4.17
2018-04-22T16:02:13.104Z,3.43
2018-04-22T16:04:40.628Z,3.60
2018-04-22T16:07:08.367Z,4.10
2018-04-22T16:09:36.656Z,3.80
2018-04-22T16:12:04.962Z,3.80
2018-04-22T16:14:32.605Z,4.47
2018-04-22T16:17:00.045Z,3.97
2018-04-22T16:19:28.329Z,3.70
2018-04-22T16:21:55.855Z,3.63
2018-04-22T16:24:23.395Z,3.97
2018-04-22T16:26:50.921Z,3.77
2018-04-22T16:29:18.460Z,3.70
2018-04-22T16:31:45.971Z,3.70
2018-04-22T16:34:13.508Z,3.30
2018-04-22T16:36:41.023Z,3.60
2018-04-22T16:39:08.562Z,3.57
2018-04-22T16:41:36.107Z,3.50
2018-04-22T16:44:03.644Z,3.13
2018-04-22T16:46:31.172Z,3.60
2018-04-22T16:48:58.707Z,3.73
2018-04-22T16:51:27.022Z,3.50
2018-04-22T16:53:54.603Z,3.13
2018-04-22T16:56:22.135Z,3.47
2018-04-22T16:58:49.763Z,3.50
2018-04-22T17:01:18.100Z,3.07
2018-04-22T17:03:45.623Z,3.20
2018-04-22T17:06:13.327Z,3.57
2018-04-22T17:08:40.881Z,3.37
2018-04-22T17:11:08.418Z,3.60
2018-04-22T17:13:35.941Z,3.60
2018-04-22T17:16:03.497Z,3.83
2018-04-22T17:18:31.018Z,3.60
2018-04-22T17:20:58.759Z,3.27
2018-04-22T17:23:26.275Z,3.53
2018-04-22T17:25:54.584Z,3.50
2018-04-22T17:28:22.891Z,3.97
2018-04-22T17:30:50.432Z,3.43
2018-04-22T17:33:17.973Z,3.60
2018-04-22T17:35:45.544Z,3.33
2018-04-22T17:38:13.881Z,3.57
2018-04-22T17:40:41.422Z,3.27
2018-04-22T17:43:08.943Z,3.40
2018-04-22T17:45:36.516Z,3.30
2018-04-22T17:48:04.168Z,3.33
2018-04-22T17:50:31.705Z,3.73
2018-04-22T17:52:59.332Z,3.30
2018-04-22T17:55:26.803Z,3.17
2018-04-22T17:57:54.343Z,3.60
2018-04-22T18:00:22.620Z,3.67
2018-04-22T18:02:50.220Z,3.33
2018-04-22T18:05:17.734Z,4.10
2018-04-22T18:07:45.271Z,3.77
2018-04-22T18:10:12.779Z,4.07
2018-04-22T18:12:40.315Z,3.70
2018-04-22T18:15:07.832Z,3.97
2018-04-22T18:17:35.412Z,3.80
2018-04-22T18:20:02.937Z,3.57
2018-04-22T18:22:30.488Z,3.43
2018-04-22T18:24:58.006Z,3.33
2018-04-22T18:27:25.593Z,3.77
2018-04-22T18:29:53.132Z,3.73
2018-04-22T18:32:20.783Z,3.60
2018-04-22T18:34:48.309Z,3.60
2018-04-22T18:37:15.831Z,4.10
2018-04-22T18:39:43.405Z,3.90
2018-04-22T18:42:10.927Z,3.37
2018-04-22T18:44:38.473Z,3.90
2018-04-22T18:47:06.761Z,4.00
2018-04-22T18:49:34.295Z,4.20
2018-04-22T18:52:01.812Z,3.80
2018-04-22T18:54:29.367Z,4.30
2018-04-22T18:56:56.895Z,3.90
2018-04-22T18:59:24.623Z,4.10
2018-04-22T19:01:52.149Z,3.90
2018-04-22T19:04:19.846Z,4.37
2018-04-22T19:06:47.377Z,5.00
2018-04-22T19:09:14.966Z,4.17
2018-04-22T19:11:43.257Z,4.33
2018-04-22T19:14:10.812Z,5.00
2018-04-22T19:16:38.338Z,4.43
2018-04-22T19:19:05.863Z,4.70
2018-04-22T19:21:33.397Z,4.30
2018-04-22T19:24:01.011Z,4.10
2018-04-22T19:26:28.547Z,4.30
2018-04-22T19:28:56.071Z,3.93
2018-04-22T19:31:23.714Z,4.47
2018-04-22T19:33:51.256Z,4.63
2018-04-22T19:36:18.806Z,4.50
2018-04-22T19:38:46.323Z,4.97
2018-04-22T19:41:13.847Z,4.80
2018-04-22T19:43:41.371Z,5.27
2018-04-22T19:46:08.944Z,4.57
2018-04-22T19:48:36.471Z,4.70
2018-04-22T19:51:04.011Z,4.57
2018-04-22T19:53:31.527Z,4.57
2018-04-22T19:55:59.829Z,4.80
2018-04-22T19:58:28.110Z,4.77
2018-04-22T20:00:55.669Z,4.97
2018-04-22T20:03:23.360Z,4.87
2018-04-22T20:05:50.907Z,5.13
2018-04-22T20:08:18.426Z,5.20
2018-04-22T20:10:45.952Z,5.20
2018-04-22T20:13:13.539Z,5.30
2018-04-22T20:15:41.069Z,5.27
2018-04-22T20:18:09.383Z,5.03
2018-04-22T20:20:36.912Z,4.93
2018-04-22T20:23:05.222Z,5.57
2018-04-22T20:25:32.742Z,5.30
2018-04-22T20:28:01.039Z,5.50
2018-04-22T20:30:28.552Z,5.10
2018-04-22T20:32:56.087Z,5.33
2018-04-22T20:35:23.644Z,5.63
2018-04-22T20:37:51.179Z,5.43
2018-04-22T20:40:18.888Z,5.67
2018-04-22T20:42:46.431Z,5.20
2018-04-22T20:45:13.959Z,5.77
2018-04-22T20:47:43.460Z,5.37
2018-04-22T20:50:10.978Z,5.87
2018-04-22T20:52:38.519Z,5.10
2018-04-22T20:55:06.110Z,5.90
2018-04-22T20:57:33.657Z,5.50
2018-04-22T21:00:01.996Z,6.50
2018-04-22T21:02:29.552Z,5.57
2018-04-22T21:04:57.098Z,5.83
2018-04-22T21:07:24.631Z,6.47
2018-04-22T21:09:52.181Z,5.73
2018-04-22T21:12:20.469Z,5.90
2018-04-22T21:14:48.012Z,5.83
2018-04-22T21:17:16.299Z,5.63
2018-04-22T21:19:43.852Z,6.50
2018-04-22T21:22:12.159Z,6.10
2018-04-22T21:24:39.718Z,6.30
2018-04-22T21:27:07.329Z,5.80
2018-04-22T21:29:34.884Z,5.90
2018-04-22T21:32:03.185Z,6.17
2018-04-22T21:34:30.729Z,5.50
2018-04-22T21:36:59.023Z,5.23
2018-04-22T21:39:26.757Z,5.60
2018-04-22T21:41:54.303Z,6.23
2018-04-22T21:44:21.832Z,6.13
2018-04-22T21:46:49.380Z,5.90
2018-04-22T21:49:16.897Z,5.37
2018-04-22T21:51:44.443Z,5.83
2018-04-22T21:54:11.969Z,5.20
2018-04-22T21:56:39.524Z,5.83
2018-04-22T21:59:07.051Z,5.37
2018-04-22T22:01:34.590Z,5.77
2018-04-22T22:04:02.913Z,5.47
2018-04-22T22:06:30.477Z,5.93
2018-04-22T22:08:58.046Z,6.43
2018-04-22T22:11:25.584Z,5.73
2018-04-22T22:13:53.108Z,6.10
2018-04-22T22:16:20.652Z,5.60
2018-04-22T22:18:48.177Z,6.30
2018-04-22T22:21:15.740Z,6.00
2018-04-22T22:23:43.275Z,5.70
2018-04-22T22:26:10.893Z,5.33
2018-04-22T22:28:39.194Z,5.93
2018-04-22T22:31:06.712Z,5.90
2018-04-22T22:33:34.248Z,6.60
2018-04-22T22:36:01.765Z,6.30
2018-04-22T22:38:29.347Z,6.67
2018-04-22T22:40:56.945Z,6.43
2018-04-22T22:43:25.272Z,7.43
2018-04-22T22:45:52.803Z,6.77
2018-04-22T22:48:20.346Z,7.00
2018-04-22T22:50:47.869Z,7.07
2018-04-22T22:53:15.407Z,7.20
2018-04-22T22:55:42.934Z,6.37
2018-04-22T22:58:10.467Z,7.00
2018-04-22T23:00:37.989Z,7.77
2018-04-22T23:03:05.540Z,7.40
2018-04-22T23:05:33.074Z,8.10
2018-04-22T23:08:00.622Z,8.07
2018-04-22T23:10:28.168Z,8.13
2018-04-22T23:12:55.696Z,7.93
2018-04-22T23:15:23.234Z,9.07
2018-04-22T23:17:50.748Z,9.00
2018-04-22T23:20:18.309Z,8.97
2018-04-22T23:22:45.833Z,9.43
2018-04-22T23:25:13.380Z,9.13
2018-04-22T23:27:40.922Z,9.07
2018-04-22T23:30:08.478Z,9.40
2018-04-22T23:32:35.995Z,8.07
2018-04-22T23:35:03.559Z,8.80
2018-04-22T23:37:31.092Z,8.27
2018-04-22T23:39:58.648Z,8.10
2018-04-22T23:42:26.948Z,7.60
2018-04-22T23:44:54.499Z,8.13
2018-04-22T23:47:22.797Z,8.30
2018-04-22T23:49:51.112Z,8.47
2018-04-22T23:52:18.640Z,8.67
2018-04-22T23:54:46.196Z,9.03
2018-04-22T23:57:13.767Z,8.10
2018-04-22T23:59:41.325Z,8.50
